sensor_id;sensor_type;location;lat;lon;timestamp;temperature;humidity
27667;DHT22;15074;50.940;5.282;2023-02-01T00:00:45;5.80;99.90
27667;DHT22;15074;50.940;5.282;2023-02-01T00:03:10;5.70;99.90
27667;DHT22;15074;50.940;5.282;2023-02-01T00:05:38;5.80;99.90
27667;DHT22;15074;50.940;5.282;2023-02-01T00:08:04;5.80;99.90
27667;DHT22;15074;50.940;5.282;2023-02-01T00:10:30;5.80;99.90
27667;DHT22;15074;50.940;5.282;2023-02-01T00:12:55;5.80;99.90
27667;DHT22;15074;50.940;5.282;2023-02-01T00:15:21;5.80;99.90
27667;DHT22;15074;50.940;5.282;2023-02-01T00:17:52;5.70;99.90
27667;DHT22;15074;50.940;5.282;2023-02-01T00:20:18;5.70;99.90
27667;DHT22;15074;50.940;5.282;2023-02-01T00:22:44;5.70;99.90
27667;DHT22;15074;50.940;5.282;2023-02-01T00:25:09;5.70;99.90
27667;DHT22;15074;50.940;5.282;2023-02-01T00:27:35;5.70;99.90
27667;DHT22;15074;50.940;5.282;2023-02-01T00:30:00;5.70;99.90
27667;DHT22;15074;50.940;5.282;2023-02-01T00:32:26;5.80;99.90
27667;DHT22;15074;50.940;5.282;2023-02-01T00:34:52;5.80;99.90
27667;DHT22;15074;50.940;5.282;2023-02-01T00:37:17;5.80;99.90
27667;DHT22;15074;50.940;5.282;2023-02-01T00:39:43;5.90;99.90
27667;DHT22;15074;50.940;5.282;2023-02-01T00:42:09;5.90;99.90
27667;DHT22;15074;50.940;5.282;2023-02-01T00:44:35;5.90;99.90
27667;DHT22;15074;50.940;5.282;2023-02-01T00:47:01;6.00;99.90
27667;DHT22;15074;50.940;5.282;2023-02-01T00:49:28;6.00;99.90
27667;DHT22;15074;50.940;5.282;2023-02-01T00:51:54;6.10;99.90
27667;DHT22;15074;50.940;5.282;2023-02-01T00:54:19;6.00;99.90
27667;DHT22;15074;50.940;5.282;2023-02-01T00:56:45;6.10;99.90
27667;DHT22;15074;50.940;5.282;2023-02-01T00:59:11;6.10;99.90
27667;DHT22;15074;50.940;5.282;2023-02-01T01:01:38;6.10;99.90
27667;DHT22;15074;50.940;5.282;2023-02-01T01:04:04;6.00;99.90
27667;DHT22;15074;50.940;5.282;2023-02-01T01:06:31;6.10;99.90
27667;DHT22;15074;50.940;5.282;2023-02-01T01:09:00;6.10;99.90
27667;DHT22;15074;50.940;5.282;2023-02-01T01:11:28;6.10;99.90
27667;DHT22;15074;50.940;5.282;2023-02-01T01:13:56;6.00;99.90
27667;DHT22;15074;50.940;5.282;2023-02-01T01:16:23;6.00;99.90
27667;DHT22;15074;50.940;5.282;2023-02-01T01:18:49;6.10;99.90
27667;DHT22;15074;50.940;5.282;2023-02-01T01:21:16;6.00;99.90
27667;DHT22;15074;50.940;5.282;2023-02-01T01:23:43;6.00;99.90
27667;DHT22;15074;50.940;5.282;2023-02-01T01:26:15;6.10;99.90
27667;DHT22;15074;50.940;5.282;2023-02-01T01:28:41;6.10;99.90
27667;DHT22;15074;50.940;5.282;2023-02-01T01:31:11;6.10;99.90
27667;DHT22;15074;50.940;5.282;2023-02-01T01:33:37;6.10;99.90
27667;DHT22;15074;50.940;5.282;2023-02-01T01:36:10;6.00;99.90
27667;DHT22;15074;50.940;5.282;2023-02-01T01:38:37;6.10;99.90
27667;DHT22;15074;50.940;5.282;2023-02-01T01:41:03;6.10;99.90
27667;DHT22;15074;50.940;5.282;2023-02-01T01:44:01;6.00;99.90
27667;DHT22;15074;50.940;5.282;2023-02-01T01:46:30;6.00;99.90
27667;DHT22;15074;50.940;5.282;2023-02-01T01:49:05;6.00;99.90
27667;DHT22;15074;50.940;5.282;2023-02-01T01:51:34;5.90;99.90
27667;DHT22;15074;50.940;5.282;2023-02-01T01:54:16;5.90;99.90
27667;DHT22;15074;50.940;5.282;2023-02-01T01:56:43;5.90;99.90
27667;DHT22;15074;50.940;5.282;2023-02-01T01:59:11;5.90;99.90
27667;DHT22;15074;50.940;5.282;2023-02-01T02:01:38;5.90;99.90
27667;DHT22;15074;50.940;5.282;2023-02-01T02:04:04;6.00;99.90
27667;DHT22;15074;50.940;5.282;2023-02-01T02:06:57;6.00;99.90
27667;DHT22;15074;50.940;5.282;2023-02-01T02:09:24;6.00;99.90
27667;DHT22;15074;50.940;5.282;2023-02-01T02:11:50;6.00;99.90
27667;DHT22;15074;50.940;5.282;2023-02-01T02:14:17;6.10;99.90
27667;DHT22;15074;50.940;5.282;2023-02-01T02:16:52;6.10;99.90
27667;DHT22;15074;50.940;5.282;2023-02-01T02:25:02;6.10;99.90
27667;DHT22;15074;50.940;5.282;2023-02-01T02:36:17;6.20;99.90
27667;DHT22;15074;50.940;5.282;2023-02-01T02:39:08;6.30;99.90
27667;DHT22;15074;50.940;5.282;2023-02-01T02:42:02;6.30;99.90
27667;DHT22;15074;50.940;5.282;2023-02-01T02:56:44;6.10;99.90
27667;DHT22;15074;50.940;5.282;2023-02-01T02:59:29;6.10;99.90
27667;DHT22;15074;50.940;5.282;2023-02-01T03:02:14;6.20;99.90
27667;DHT22;15074;50.940;5.282;2023-02-01T03:04:59;6.20;99.90
27667;DHT22;15074;50.940;5.282;2023-02-01T03:10:39;6.10;99.90
27667;DHT22;15074;50.940;5.282;2023-02-01T03:13:10;6.10;99.90
27667;DHT22;15074;50.940;5.282;2023-02-01T03:18:36;5.90;99.90
27667;DHT22;15074;50.940;5.282;2023-02-01T03:21:11;5.80;99.90
27667;DHT22;15074;50.940;5.282;2023-02-01T03:23:38;5.70;99.90
27667;DHT22;15074;50.940;5.282;2023-02-01T03:26:07;5.80;99.90
27667;DHT22;15074;50.940;5.282;2023-02-01T03:28:35;5.70;99.90
27667;DHT22;15074;50.940;5.282;2023-02-01T03:31:02;5.80;99.90
27667;DHT22;15074;50.940;5.282;2023-02-01T03:33:28;5.70;99.90
27667;DHT22;15074;50.940;5.282;2023-02-01T03:49:29;5.60;99.90
27667;DHT22;15074;50.940;5.282;2023-02-01T03:51:58;5.60;99.90
27667;DHT22;15074;50.940;5.282;2023-02-01T03:54:26;5.60;99.90
27667;DHT22;15074;50.940;5.282;2023-02-01T03:56:55;5.60;99.90
27667;DHT22;15074;50.940;5.282;2023-02-01T03:59:22;5.60;99.90
27667;DHT22;15074;50.940;5.282;2023-02-01T04:01:47;5.60;99.90
27667;DHT22;15074;50.940;5.282;2023-02-01T04:04:13;5.50;99.90
27667;DHT22;15074;50.940;5.282;2023-02-01T04:06:46;5.50;99.90
27667;DHT22;15074;50.940;5.282;2023-02-01T04:09:12;5.50;99.90
27667;DHT22;15074;50.940;5.282;2023-02-01T04:11:38;5.40;99.90
27667;DHT22;15074;50.940;5.282;2023-02-01T04:14:03;5.40;99.90
27667;DHT22;15074;50.940;5.282;2023-02-01T04:16:31;5.50;99.90
27667;DHT22;15074;50.940;5.282;2023-02-01T04:18:59;5.40;99.90
27667;DHT22;15074;50.940;5.282;2023-02-01T04:21:26;5.40;99.90
27667;DHT22;15074;50.940;5.282;2023-02-01T04:23:52;5.40;99.90
27667;DHT22;15074;50.940;5.282;2023-02-01T04:26:18;5.30;99.90
27667;DHT22;15074;50.940;5.282;2023-02-01T04:28:44;5.40;99.90
27667;DHT22;15074;50.940;5.282;2023-02-01T04:31:13;5.40;99.90
27667;DHT22;15074;50.940;5.282;2023-02-01T04:33:39;5.30;99.90
27667;DHT22;15074;50.940;5.282;2023-02-01T04:36:04;5.40;99.90
27667;DHT22;15074;50.940;5.282;2023-02-01T04:38:30;5.30;99.90
27667;DHT22;15074;50.940;5.282;2023-02-01T04:51:40;5.40;99.90
27667;DHT22;15074;50.940;5.282;2023-02-01T05:00:54;5.40;99.90
27667;DHT22;15074;50.940;5.282;2023-02-01T05:03:20;5.30;99.90
27667;DHT22;15074;50.940;5.282;2023-02-01T05:05:49;5.40;99.90
27667;DHT22;15074;50.940;5.282;2023-02-01T05:08:15;5.40;99.90
27667;DHT22;15074;50.940;5.282;2023-02-01T05:10:41;5.50;99.90
27667;DHT22;15074;50.940;5.282;2023-02-01T05:13:08;5.40;99.90
27667;DHT22;15074;50.940;5.282;2023-02-01T05:16:14;5.50;99.90
27667;DHT22;15074;50.940;5.282;2023-02-01T05:18:48;5.40;99.90
27667;DHT22;15074;50.940;5.282;2023-02-01T05:21:13;5.40;99.90
27667;DHT22;15074;50.940;5.282;2023-02-01T05:34:20;5.40;99.90
27667;DHT22;15074;50.940;5.282;2023-02-01T05:47:23;5.30;99.90
27667;DHT22;15074;50.940;5.282;2023-02-01T05:50:08;5.20;99.90
27667;DHT22;15074;50.940;5.282;2023-02-01T05:52:34;5.20;99.90
27667;DHT22;15074;50.940;5.282;2023-02-01T05:54:59;5.20;99.90
27667;DHT22;15074;50.940;5.282;2023-02-01T05:57:25;5.20;99.90
27667;DHT22;15074;50.940;5.282;2023-02-01T05:59:50;5.10;99.90
27667;DHT22;15074;50.940;5.282;2023-02-01T06:02:16;5.10;99.90
27667;DHT22;15074;50.940;5.282;2023-02-01T06:04:42;5.00;99.90
27667;DHT22;15074;50.940;5.282;2023-02-01T06:07:09;5.00;99.90
27667;DHT22;15074;50.940;5.282;2023-02-01T06:09:36;4.90;99.90
27667;DHT22;15074;50.940;5.282;2023-02-01T06:12:05;4.90;99.90
27667;DHT22;15074;50.940;5.282;2023-02-01T06:14:30;4.90;99.90
27667;DHT22;15074;50.940;5.282;2023-02-01T06:16:56;4.90;99.90
27667;DHT22;15074;50.940;5.282;2023-02-01T06:19:22;4.80;99.90
27667;DHT22;15074;50.940;5.282;2023-02-01T06:21:48;4.80;99.90
27667;DHT22;15074;50.940;5.282;2023-02-01T06:24:14;4.80;99.90
27667;DHT22;15074;50.940;5.282;2023-02-01T06:26:40;4.70;99.90
27667;DHT22;15074;50.940;5.282;2023-02-01T06:29:07;4.70;99.90
27667;DHT22;15074;50.940;5.282;2023-02-01T06:31:33;4.70;99.90
27667;DHT22;15074;50.940;5.282;2023-02-01T06:33:59;4.70;99.90
27667;DHT22;15074;50.940;5.282;2023-02-01T06:36:24;4.60;99.90
27667;DHT22;15074;50.940;5.282;2023-02-01T06:38:51;4.70;99.90
27667;DHT22;15074;50.940;5.282;2023-02-01T06:41:17;4.70;99.90
27667;DHT22;15074;50.940;5.282;2023-02-01T06:43:43;4.70;99.90
27667;DHT22;15074;50.940;5.282;2023-02-01T07:35:20;4.40;99.90
27667;DHT22;15074;50.940;5.282;2023-02-01T08:01:04;5.10;99.90
27667;DHT22;15074;50.940;5.282;2023-02-01T08:03:47;5.00;99.90
27667;DHT22;15074;50.940;5.282;2023-02-01T08:06:13;4.90;99.90
27667;DHT22;15074;50.940;5.282;2023-02-01T08:08:38;4.90;99.90
27667;DHT22;15074;50.940;5.282;2023-02-01T08:11:05;4.90;99.90
27667;DHT22;15074;50.940;5.282;2023-02-01T08:13:33;5.10;99.90
27667;DHT22;15074;50.940;5.282;2023-02-01T08:16:00;5.30;99.90
27667;DHT22;15074;50.940;5.282;2023-02-01T08:18:27;5.50;99.90
27667;DHT22;15074;50.940;5.282;2023-02-01T08:20:53;5.70;99.90
27667;DHT22;15074;50.940;5.282;2023-02-01T08:23:19;5.90;99.90
27667;DHT22;15074;50.940;5.282;2023-02-01T08:25:45;5.70;99.90
27667;DHT22;15074;50.940;5.282;2023-02-01T08:28:11;6.00;99.90
27667;DHT22;15074;50.940;5.282;2023-02-01T08:30:37;6.40;99.90
27667;DHT22;15074;50.940;5.282;2023-02-01T08:33:09;6.70;99.90
27667;DHT22;15074;50.940;5.282;2023-02-01T08:35:36;6.70;99.90
27667;DHT22;15074;50.940;5.282;2023-02-01T08:38:02;6.50;99.90
27667;DHT22;15074;50.940;5.282;2023-02-01T08:40:28;6.40;99.90
27667;DHT22;15074;50.940;5.282;2023-02-01T08:42:54;6.20;99.90
27667;DHT22;15074;50.940;5.282;2023-02-01T08:45:26;6.10;99.90
27667;DHT22;15074;50.940;5.282;2023-02-01T08:47:53;6.00;99.90
27667;DHT22;15074;50.940;5.282;2023-02-01T08:50:20;5.90;99.90
27667;DHT22;15074;50.940;5.282;2023-02-01T08:52:46;6.00;99.90
27667;DHT22;15074;50.940;5.282;2023-02-01T08:55:13;6.10;99.90
27667;DHT22;15074;50.940;5.282;2023-02-01T08:57:39;6.10;99.90
27667;DHT22;15074;50.940;5.282;2023-02-01T09:00:06;6.10;99.90
27667;DHT22;15074;50.940;5.282;2023-02-01T09:02:33;6.10;99.90
27667;DHT22;15074;50.940;5.282;2023-02-01T09:04:59;6.00;99.90
27667;DHT22;15074;50.940;5.282;2023-02-01T09:07:25;6.10;99.90
27667;DHT22;15074;50.940;5.282;2023-02-01T09:09:50;6.10;99.90
27667;DHT22;15074;50.940;5.282;2023-02-01T09:12:16;6.20;99.90
27667;DHT22;15074;50.940;5.282;2023-02-01T09:14:42;6.40;99.90
27667;DHT22;15074;50.940;5.282;2023-02-01T09:17:07;6.30;99.90
27667;DHT22;15074;50.940;5.282;2023-02-01T09:19:33;6.30;99.90
27667;DHT22;15074;50.940;5.282;2023-02-01T09:21:59;6.40;99.90
27667;DHT22;15074;50.940;5.282;2023-02-01T09:24:25;6.50;99.90
27667;DHT22;15074;50.940;5.282;2023-02-01T09:26:51;6.70;99.90
27667;DHT22;15074;50.940;5.282;2023-02-01T09:29:16;6.90;99.90
27667;DHT22;15074;50.940;5.282;2023-02-01T09:31:42;6.90;99.90
27667;DHT22;15074;50.940;5.282;2023-02-01T09:34:08;7.10;99.90
27667;DHT22;15074;50.940;5.282;2023-02-01T09:36:36;7.30;99.90
27667;DHT22;15074;50.940;5.282;2023-02-01T09:39:02;7.30;99.90
27667;DHT22;15074;50.940;5.282;2023-02-01T09:44:18;7.50;99.90
27667;DHT22;15074;50.940;5.282;2023-02-01T09:46:45;7.80;99.90
27667;DHT22;15074;50.940;5.282;2023-02-01T09:49:20;8.20;99.90
27667;DHT22;15074;50.940;5.282;2023-02-01T09:51:49;8.50;99.90
27667;DHT22;15074;50.940;5.282;2023-02-01T09:57:10;8.60;99.90
27667;DHT22;15074;50.940;5.282;2023-02-01T10:02:01;10.00;99.90
27667;DHT22;15074;50.940;5.282;2023-02-01T10:04:27;10.40;99.90
27667;DHT22;15074;50.940;5.282;2023-02-01T10:09:49;10.60;99.90
27667;DHT22;15074;50.940;5.282;2023-02-01T10:15:22;11.30;99.90
27667;DHT22;15074;50.940;5.282;2023-02-01T10:18:31;11.70;99.90
27667;DHT22;15074;50.940;5.282;2023-02-01T10:21:19;11.30;99.90
27667;DHT22;15074;50.940;5.282;2023-02-01T10:26:23;12.20;99.90
27667;DHT22;15074;50.940;5.282;2023-02-01T10:28:57;12.20;99.90
27667;DHT22;15074;50.940;5.282;2023-02-01T10:31:30;12.00;99.90
27667;DHT22;15074;50.940;5.282;2023-02-01T10:33:58;12.30;99.90
27667;DHT22;15074;50.940;5.282;2023-02-01T10:36:39;12.20;99.90
27667;DHT22;15074;50.940;5.282;2023-02-01T10:39:06;12.30;99.90
27667;DHT22;15074;50.940;5.282;2023-02-01T10:41:36;12.50;99.90
27667;DHT22;15074;50.940;5.282;2023-02-01T10:44:09;12.50;99.90
27667;DHT22;15074;50.940;5.282;2023-02-01T10:46:37;12.60;99.90
27667;DHT22;15074;50.940;5.282;2023-02-01T10:49:05;12.90;99.90
27667;DHT22;15074;50.940;5.282;2023-02-01T10:54:22;12.80;99.90
27667;DHT22;15074;50.940;5.282;2023-02-01T10:56:56;12.90;99.90
27667;DHT22;15074;50.940;5.282;2023-02-01T10:59:24;13.30;99.90
27667;DHT22;15074;50.940;5.282;2023-02-01T11:01:59;13.30;99.90
27667;DHT22;15074;50.940;5.282;2023-02-01T11:04:26;13.10;99.90
27667;DHT22;15074;50.940;5.282;2023-02-01T11:07:12;13.40;99.90
27667;DHT22;15074;50.940;5.282;2023-02-01T11:09:40;13.00;99.90
27667;DHT22;15074;50.940;5.282;2023-02-01T11:14:58;13.00;99.90
27667;DHT22;15074;50.940;5.282;2023-02-01T11:17:29;12.20;99.90
27667;DHT22;15074;50.940;5.282;2023-02-01T11:20:00;11.90;99.90
27667;DHT22;15074;50.940;5.282;2023-02-01T11:22:27;11.70;99.90
27667;DHT22;15074;50.940;5.282;2023-02-01T11:24:55;11.80;99.90
27667;DHT22;15074;50.940;5.282;2023-02-01T11:27:23;12.20;99.90
27667;DHT22;15074;50.940;5.282;2023-02-01T11:29:52;12.20;99.90
27667;DHT22;15074;50.940;5.282;2023-02-01T11:32:22;12.60;99.90
27667;DHT22;15074;50.940;5.282;2023-02-01T11:35:04;13.20;99.90
27667;DHT22;15074;50.940;5.282;2023-02-01T11:37:37;12.70;99.90
27667;DHT22;15074;50.940;5.282;2023-02-01T11:40:34;12.40;99.90
27667;DHT22;15074;50.940;5.282;2023-02-01T11:43:27;12.80;99.90
27667;DHT22;15074;50.940;5.282;2023-02-01T11:46:01;13.00;99.90
27667;DHT22;15074;50.940;5.282;2023-02-01T11:48:30;12.70;99.90
27667;DHT22;15074;50.940;5.282;2023-02-01T11:51:21;12.00;99.90
27667;DHT22;15074;50.940;5.282;2023-02-01T11:56:37;12.00;99.90
27667;DHT22;15074;50.940;5.282;2023-02-01T12:01:43;10.90;99.90
27667;DHT22;15074;50.940;5.282;2023-02-01T12:20:50;9.50;99.90
27667;DHT22;15074;50.940;5.282;2023-02-01T12:26:27;9.50;99.90
27667;DHT22;15074;50.940;5.282;2023-02-01T12:32:25;9.60;99.90
27667;DHT22;15074;50.940;5.282;2023-02-01T12:37:57;9.50;99.90
27667;DHT22;15074;50.940;5.282;2023-02-01T12:43:04;9.40;99.90
27667;DHT22;15074;50.940;5.282;2023-02-01T12:45:49;9.30;99.90
27667;DHT22;15074;50.940;5.282;2023-02-01T12:48:40;9.30;99.90
27667;DHT22;15074;50.940;5.282;2023-02-01T12:51:13;9.20;99.90
27667;DHT22;15074;50.940;5.282;2023-02-01T12:53:51;9.10;99.90
27667;DHT22;15074;50.940;5.282;2023-02-01T12:59:02;9.10;99.90
27667;DHT22;15074;50.940;5.282;2023-02-01T13:01:42;9.10;99.90
27667;DHT22;15074;50.940;5.282;2023-02-01T13:07:22;9.20;99.90
27667;DHT22;15074;50.940;5.282;2023-02-01T13:12:23;9.20;99.90
27667;DHT22;15074;50.940;5.282;2023-02-01T13:15:01;9.20;99.90
27667;DHT22;15074;50.940;5.282;2023-02-01T13:17:31;9.10;99.90
27667;DHT22;15074;50.940;5.282;2023-02-01T13:22:40;9.10;99.90
27667;DHT22;15074;50.940;5.282;2023-02-01T13:25:34;9.10;99.90
27667;DHT22;15074;50.940;5.282;2023-02-01T13:41:35;9.50;99.90
27667;DHT22;15074;50.940;5.282;2023-02-01T13:44:14;9.40;99.90
27667;DHT22;15074;50.940;5.282;2023-02-01T13:46:45;9.50;99.90
27667;DHT22;15074;50.940;5.282;2023-02-01T13:49:24;9.40;99.90
27667;DHT22;15074;50.940;5.282;2023-02-01T13:51:53;9.40;99.90
27667;DHT22;15074;50.940;5.282;2023-02-01T13:54:33;9.40;99.90
27667;DHT22;15074;50.940;5.282;2023-02-01T13:57:04;9.40;99.90
27667;DHT22;15074;50.940;5.282;2023-02-01T14:02:45;9.50;99.90
27667;DHT22;15074;50.940;5.282;2023-02-01T14:08:43;9.40;99.90
27667;DHT22;15074;50.940;5.282;2023-02-01T14:11:01;9.40;99.90
27667;DHT22;15074;50.940;5.282;2023-02-01T14:13:41;9.50;99.90
27667;DHT22;15074;50.940;5.282;2023-02-01T14:16:14;9.50;99.90
27667;DHT22;15074;50.940;5.282;2023-02-01T14:23:45;9.50;99.90
27667;DHT22;15074;50.940;5.282;2023-02-01T14:26:15;9.30;99.90
27667;DHT22;15074;50.940;5.282;2023-02-01T14:29:30;9.40;99.90
27667;DHT22;15074;50.940;5.282;2023-02-01T14:31:41;9.40;99.90
27667;DHT22;15074;50.940;5.282;2023-02-01T14:34:17;9.30;99.90
27667;DHT22;15074;50.940;5.282;2023-02-01T14:36:47;9.30;99.90
27667;DHT22;15074;50.940;5.282;2023-02-01T14:39:30;9.40;99.90
27667;DHT22;15074;50.940;5.282;2023-02-01T14:42:00;9.40;99.90
27667;DHT22;15074;50.940;5.282;2023-02-01T14:44:30;9.40;99.90
27667;DHT22;15074;50.940;5.282;2023-02-01T14:47:08;9.40;99.90
27667;DHT22;15074;50.940;5.282;2023-02-01T14:49:37;9.40;99.90
27667;DHT22;15074;50.940;5.282;2023-02-01T14:52:11;9.30;99.90
27667;DHT22;15074;50.940;5.282;2023-02-01T14:54:39;9.40;99.90
27667;DHT22;15074;50.940;5.282;2023-02-01T14:57:14;9.30;99.90
27667;DHT22;15074;50.940;5.282;2023-02-01T14:59:41;9.30;99.90
27667;DHT22;15074;50.940;5.282;2023-02-01T15:02:23;9.30;99.90
27667;DHT22;15074;50.940;5.282;2023-02-01T15:04:56;9.30;99.90
27667;DHT22;15074;50.940;5.282;2023-02-01T15:07:24;9.30;99.90
27667;DHT22;15074;50.940;5.282;2023-02-01T15:09:53;9.30;99.90
27667;DHT22;15074;50.940;5.282;2023-02-01T15:12:25;9.30;99.90
27667;DHT22;15074;50.940;5.282;2023-02-01T15:15:12;9.20;99.90
27667;DHT22;15074;50.940;5.282;2023-02-01T15:17:38;9.20;99.90
27667;DHT22;15074;50.940;5.282;2023-02-01T15:20:17;9.20;99.90
27667;DHT22;15074;50.940;5.282;2023-02-01T15:22:56;9.20;99.90
27667;DHT22;15074;50.940;5.282;2023-02-01T15:25:28;9.20;99.90
27667;DHT22;15074;50.940;5.282;2023-02-01T15:27:54;9.10;99.90
27667;DHT22;15074;50.940;5.282;2023-02-01T15:30:26;9.10;99.90
27667;DHT22;15074;50.940;5.282;2023-02-01T15:33:07;9.00;99.90
27667;DHT22;15074;50.940;5.282;2023-02-01T15:35:41;9.10;99.90
27667;DHT22;15074;50.940;5.282;2023-02-01T15:38:42;9.10;99.90
27667;DHT22;15074;50.940;5.282;2023-02-01T15:43:49;9.00;99.90
27667;DHT22;15074;50.940;5.282;2023-02-01T15:46:38;9.00;99.90
27667;DHT22;15074;50.940;5.282;2023-02-01T15:49:05;9.00;99.90
27667;DHT22;15074;50.940;5.282;2023-02-01T15:51:44;8.90;99.90
27667;DHT22;15074;50.940;5.282;2023-02-01T15:55:00;8.90;99.90
27667;DHT22;15074;50.940;5.282;2023-02-01T15:57:07;8.90;99.90
27667;DHT22;15074;50.940;5.282;2023-02-01T15:59:41;8.80;99.90
27667;DHT22;15074;50.940;5.282;2023-02-01T16:04:51;8.80;99.90
27667;DHT22;15074;50.940;5.282;2023-02-01T16:07:27;8.80;99.90
27667;DHT22;15074;50.940;5.282;2023-02-01T16:09:57;8.70;99.90
27667;DHT22;15074;50.940;5.282;2023-02-01T16:15:04;8.60;99.90
27667;DHT22;15074;50.940;5.282;2023-02-01T16:17:31;8.70;99.90
27667;DHT22;15074;50.940;5.282;2023-02-01T16:19:57;8.60;99.90
27667;DHT22;15074;50.940;5.282;2023-02-01T16:22:23;8.70;99.90
27667;DHT22;15074;50.940;5.282;2023-02-01T16:24:49;8.60;99.90
27667;DHT22;15074;50.940;5.282;2023-02-01T16:27:15;8.60;99.90
27667;DHT22;15074;50.940;5.282;2023-02-01T16:29:40;8.60;99.90
27667;DHT22;15074;50.940;5.282;2023-02-01T16:32:10;8.60;99.90
27667;DHT22;15074;50.940;5.282;2023-02-01T16:34:39;8.60;99.90
27667;DHT22;15074;50.940;5.282;2023-02-01T16:37:05;8.70;99.90
27667;DHT22;15074;50.940;5.282;2023-02-01T16:39:35;8.60;99.90
27667;DHT22;15074;50.940;5.282;2023-02-01T16:42:00;8.60;99.90
27667;DHT22;15074;50.940;5.282;2023-02-01T16:44:30;8.60;99.90
27667;DHT22;15074;50.940;5.282;2023-02-01T16:46:56;8.60;99.90
27667;DHT22;15074;50.940;5.282;2023-02-01T16:49:23;8.60;99.90
27667;DHT22;15074;50.940;5.282;2023-02-01T16:51:51;8.60;99.90
27667;DHT22;15074;50.940;5.282;2023-02-01T16:54:18;8.50;99.90
27667;DHT22;15074;50.940;5.282;2023-02-01T16:56:45;8.50;99.90
27667;DHT22;15074;50.940;5.282;2023-02-01T16:59:11;8.40;99.90
27667;DHT22;15074;50.940;5.282;2023-02-01T17:01:38;8.40;99.90
27667;DHT22;15074;50.940;5.282;2023-02-01T17:04:04;8.40;99.90
27667;DHT22;15074;50.940;5.282;2023-02-01T17:06:30;8.50;99.90
27667;DHT22;15074;50.940;5.282;2023-02-01T17:08:58;8.50;99.90
27667;DHT22;15074;50.940;5.282;2023-02-01T17:11:25;8.50;99.90
27667;DHT22;15074;50.940;5.282;2023-02-01T17:13:51;8.40;99.90
27667;DHT22;15074;50.940;5.282;2023-02-01T17:18:44;8.40;99.90
27667;DHT22;15074;50.940;5.282;2023-02-01T17:21:12;8.40;99.90
27667;DHT22;15074;50.940;5.282;2023-02-01T17:23:38;8.40;99.90
27667;DHT22;15074;50.940;5.282;2023-02-01T17:26:04;8.40;99.90
27667;DHT22;15074;50.940;5.282;2023-02-01T17:28:29;8.40;99.90
27667;DHT22;15074;50.940;5.282;2023-02-01T17:30:56;8.40;99.90
27667;DHT22;15074;50.940;5.282;2023-02-01T17:33:31;8.30;99.90
27667;DHT22;15074;50.940;5.282;2023-02-01T17:35:58;8.20;99.90
27667;DHT22;15074;50.940;5.282;2023-02-01T17:38:25;8.20;99.90
27667;DHT22;15074;50.940;5.282;2023-02-01T17:40:51;8.20;99.90
27667;DHT22;15074;50.940;5.282;2023-02-01T17:43:22;8.20;99.90
27667;DHT22;15074;50.940;5.282;2023-02-01T17:48:20;8.10;99.90
27667;DHT22;15074;50.940;5.282;2023-02-01T17:50:47;8.10;99.90
27667;DHT22;15074;50.940;5.282;2023-02-01T17:53:15;8.10;99.90
27667;DHT22;15074;50.940;5.282;2023-02-01T17:55:44;8.00;99.90
27667;DHT22;15074;50.940;5.282;2023-02-01T17:58:11;8.00;99.90
27667;DHT22;15074;50.940;5.282;2023-02-01T18:00:38;8.00;99.90
27667;DHT22;15074;50.940;5.282;2023-02-01T18:03:05;8.00;99.90
27667;DHT22;15074;50.940;5.282;2023-02-01T18:05:39;8.10;99.90
27667;DHT22;15074;50.940;5.282;2023-02-01T18:08:06;8.00;99.90
27667;DHT22;15074;50.940;5.282;2023-02-01T18:10:32;8.10;99.90
27667;DHT22;15074;50.940;5.282;2023-02-01T18:12:58;8.10;99.90
27667;DHT22;15074;50.940;5.282;2023-02-01T18:15:25;8.10;99.90
27667;DHT22;15074;50.940;5.282;2023-02-01T18:17:51;8.10;99.90
27667;DHT22;15074;50.940;5.282;2023-02-01T18:20:23;8.10;99.90
27667;DHT22;15074;50.940;5.282;2023-02-01T18:22:50;8.20;99.90
27667;DHT22;15074;50.940;5.282;2023-02-01T18:25:24;8.10;99.90
27667;DHT22;15074;50.940;5.282;2023-02-01T18:27:53;8.20;99.90
27667;DHT22;15074;50.940;5.282;2023-02-01T18:30:27;8.20;99.90
27667;DHT22;15074;50.940;5.282;2023-02-01T18:32:54;8.30;99.90
27667;DHT22;15074;50.940;5.282;2023-02-01T18:35:24;8.20;99.90
27667;DHT22;15074;50.940;5.282;2023-02-01T18:37:51;8.20;99.90
27667;DHT22;15074;50.940;5.282;2023-02-01T18:40:19;8.20;99.90
27667;DHT22;15074;50.940;5.282;2023-02-01T18:42:46;8.20;99.90
27667;DHT22;15074;50.940;5.282;2023-02-01T18:45:36;8.20;99.90
27667;DHT22;15074;50.940;5.282;2023-02-01T18:48:04;8.20;99.90
27667;DHT22;15074;50.940;5.282;2023-02-01T18:50:31;8.20;99.90
27667;DHT22;15074;50.940;5.282;2023-02-01T18:52:59;8.20;99.90
27667;DHT22;15074;50.940;5.282;2023-02-01T18:55:26;8.30;99.90
27667;DHT22;15074;50.940;5.282;2023-02-01T18:57:52;8.30;99.90
27667;DHT22;15074;50.940;5.282;2023-02-01T19:00:20;8.30;99.90
27667;DHT22;15074;50.940;5.282;2023-02-01T19:02:46;8.30;99.90
27667;DHT22;15074;50.940;5.282;2023-02-01T19:05:13;8.30;99.90
27667;DHT22;15074;50.940;5.282;2023-02-01T19:07:40;8.30;99.90
27667;DHT22;15074;50.940;5.282;2023-02-01T19:10:08;8.30;99.90
27667;DHT22;15074;50.940;5.282;2023-02-01T19:12:34;8.30;99.90
27667;DHT22;15074;50.940;5.282;2023-02-01T19:15:01;8.20;99.90
27667;DHT22;15074;50.940;5.282;2023-02-01T19:17:28;8.20;99.90
27667;DHT22;15074;50.940;5.282;2023-02-01T19:19:54;8.20;99.90
27667;DHT22;15074;50.940;5.282;2023-02-01T19:22:20;8.20;99.90
27667;DHT22;15074;50.940;5.282;2023-02-01T19:24:45;8.20;99.90
27667;DHT22;15074;50.940;5.282;2023-02-01T19:27:11;8.20;99.90
27667;DHT22;15074;50.940;5.282;2023-02-01T19:29:37;8.20;99.90
27667;DHT22;15074;50.940;5.282;2023-02-01T19:32:04;8.20;99.90
27667;DHT22;15074;50.940;5.282;2023-02-01T19:34:30;8.20;99.90
27667;DHT22;15074;50.940;5.282;2023-02-01T19:36:56;8.20;99.90
27667;DHT22;15074;50.940;5.282;2023-02-01T19:39:23;8.20;99.90
27667;DHT22;15074;50.940;5.282;2023-02-01T19:41:50;8.20;99.90
27667;DHT22;15074;50.940;5.282;2023-02-01T19:44:16;8.20;99.90
27667;DHT22;15074;50.940;5.282;2023-02-01T19:46:42;8.20;99.90
27667;DHT22;15074;50.940;5.282;2023-02-01T19:49:08;8.30;99.90
27667;DHT22;15074;50.940;5.282;2023-02-01T19:51:40;8.20;99.90
27667;DHT22;15074;50.940;5.282;2023-02-01T19:54:10;8.20;99.90
27667;DHT22;15074;50.940;5.282;2023-02-01T19:56:36;8.20;99.90
27667;DHT22;15074;50.940;5.282;2023-02-01T19:59:05;8.20;99.90
27667;DHT22;15074;50.940;5.282;2023-02-01T20:01:31;8.20;99.90
27667;DHT22;15074;50.940;5.282;2023-02-01T20:03:57;8.20;99.90
27667;DHT22;15074;50.940;5.282;2023-02-01T20:06:29;8.20;99.90
27667;DHT22;15074;50.940;5.282;2023-02-01T20:08:55;8.20;99.90
27667;DHT22;15074;50.940;5.282;2023-02-01T20:11:22;8.20;99.90
27667;DHT22;15074;50.940;5.282;2023-02-01T20:13:53;8.20;99.90
27667;DHT22;15074;50.940;5.282;2023-02-01T20:16:20;8.10;99.90
27667;DHT22;15074;50.940;5.282;2023-02-01T20:18:46;8.10;99.90
27667;DHT22;15074;50.940;5.282;2023-02-01T20:21:12;8.10;99.90
27667;DHT22;15074;50.940;5.282;2023-02-01T20:23:38;8.10;99.90